KISO/ISO METAR and TAF weather

Enter ICAO airport designator
Station Type Date Time Source
KISO METAR 2020/11/28 18:56 UTC NOAA

KISO 281856Z 35005KT 10SM CLR 19/09 A3004


Station Type Date Time Source
KISO Decoded METAR 2020/11/28 18:56 UTC NOAA

Kinston, Kinston Regional Jetport at Stallings Field, NC, United States (KISO) 35-20N 077-37W
Nov 28, 2020 - 01:56 PM EST / 2020.11.28 1856 UTC
Wind: from the N (350 degrees) at 6 MPH (5 KT):0
Visibility: 10 mile(s):0
Sky conditions: clear
Temperature: 66 F (19 C)
Dew Point: 48 F (9 C)
Relative Humidity: 52%
Pressure (altimeter): 30.04 in. Hg (1017 hPa)
ob: KISO 281856Z 35005KT 10SM CLR 19/09 A3004
cycle: 19

Station Type Date Time Source
KISO TAF 2020/11/28 18:44 UTC NOAA

TAF KISO 281744Z 2818/2918 31004KT P6SM FEW250
FM290800 00000KT 3SM BR SCT007
FM291400 07004KT P6SM SCT150
FM291700 10005KT P6SM SCT200
AMD LTD TO CLD VIS AND WIND

Example: see airport list